Time;durP1;ratioP1;P1;durP2;ratioP2;P2;SDS_P1;SDS_P2;PMS_P1;PMS_P2;Temp;Humidity;BMP_temperature;BMP_pressure;BME280_temperature;BME280_humidity;BME280_pressure;Samples;Min_cycle;Max_cycle;Signal;HPM_P1;HPM_P2
2023/01/30 00:07:41;;;;;;;;;;;;;;;-1.23;85.97;98551.30;438034;1250;109514;-41
2023/01/30 00:17:47;;;;;;;;;;;;;;;-1.33;86.28;98535.55;438016;1250;108369;-40
2023/01/30 00:27:52;;;;;;;;;;;;;;;-1.31;86.16;98519.70;437853;1250;96637;-41
2023/01/30 00:37:58;;;;;;;;;;;;;;;-1.28;86.25;98507.05;437988;1250;109188;-40
2023/01/30 00:48:04;;;;;;;;;;;;;;;-1.26;86.16;98501.29;438081;1250;108263;-40
2023/01/30 00:58:09;;;;;;;;;;;;;;;-1.32;86.38;98496.92;438074;1248;97883;-40
2023/01/30 01:08:15;;;;;;;;;;;;;;;-1.44;86.54;98477.24;437526;1250;109732;-40
2023/01/30 01:18:21;;;;;;;;;;;;;;;-1.55;86.41;98454.04;437403;1250;107957;-40
2023/01/30 01:28:26;;;;;;;;;;;;;;;-1.68;86.38;98420.05;437596;1246;97915;-41
2023/01/30 01:38:32;;;;;;;;;;;;;;;-1.72;86.23;98390.55;437560;1250;110401;-40
2023/01/30 01:48:36;;;;;;;;;;;;;;;-1.63;86.38;98352.15;437394;1250;108399;-40
2023/01/30 01:58:43;;;;;;;;;;;;;;;-1.72;86.33;98319.73;437502;1249;97872;-40
2023/01/30 02:08:50;;;;;;;;;;;;;;;-1.86;86.13;98301.88;438370;1249;109442;-41
2023/01/30 02:18:56;;;;;;;;;;;;;;;-1.95;86.17;98282.02;437569;1250;108089;-41
2023/01/30 02:29:19;;;;;;;;;;;;;;;-1.97;85.83;98257.18;437550;1250;108408;-41
2023/01/30 02:39:25;;;;;;;;;;;;;;;-1.91;85.83;98255.92;437696;1250;97144;-40
2023/01/30 02:49:32;;;;;;;;;;;;;;;-1.95;85.63;98238.73;437665;1250;107586;-40
2023/01/30 02:59:40;;;;;;;;;;;;;;;-2.18;85.51;98237.45;437662;1250;96631;-40
2023/01/30 03:09:46;;;;;;;;;;;;;;;-2.44;85.33;98241.42;437712;1250;97861;-40
2023/01/30 03:19:50;;;;;;;;;;;;;;;-2.58;85.24;98221.96;437678;1250;108785;-39
2023/01/30 03:29:56;;;;;;;;;;;;;;;-2.64;84.98;98185.92;437631;1250;107213;-40
2023/01/30 03:40:02;;;;;;;;;;;;;;;-2.61;85.15;98147.38;437627;1250;96632;-40
2023/01/30 03:50:06;;;;;;;;;;;;;;;-2.66;85.22;98139.37;437667;1251;108031;-43
2023/01/30 04:00:12;;;;;;;;;;;;;;;-2.69;85.24;98122.80;437770;1251;97877;-40
2023/01/30 04:10:19;;;;;;;;;;;;;;;-2.75;85.15;98104.48;437700;1250;97880;-39
2023/01/30 04:40:34;;;;;;;;;;;;;;;-2.62;85.00;98036.89;437731;1248;96656;-41
2023/01/30 04:50:40;;;;;;;;;;;;;;;-2.59;85.10;98032.38;437526;1250;110438;-40
2023/01/30 05:00:45;;;;;;;;;;;;;;;-2.63;85.03;98026.96;437577;1250;107321;-39
2023/01/30 05:10:51;;;;;;;;;;;;;;;-2.64;85.06;98023.62;437553;1250;108589;-40
2023/01/30 05:20:57;;;;;;;;;;;;;;;-2.58;84.87;98014.03;437468;1251;97916;-40
2023/01/30 05:31:01;;;;;;;;;;;;;;;-2.46;84.87;97993.86;437619;1250;107290;-42
2023/01/30 05:41:08;;;;;;;;;;;;;;;-2.34;85.02;97943.31;437613;1251;97857;-39
2023/01/30 05:51:16;;;;;;;;;;;;;;;-2.39;84.73;97917.38;437692;1254;97062;-40
2023/01/30 06:01:22;;;;;;;;;;;;;;;-2.41;84.50;97918.26;437672;1250;110125;-41
2023/01/30 06:11:28;;;;;;;;;;;;;;;-2.35;84.52;97899.02;437591;1250;106807;-40
2023/01/30 06:21:34;;;;;;;;;;;;;;;-2.21;84.32;97884.16;437596;1250;97958;-41
2023/01/30 06:31:39;;;;;;;;;;;;;;;-2.10;84.17;97858.33;437557;1250;110160;-42
2023/01/30 06:41:45;;;;;;;;;;;;;;;-2.10;84.26;97868.66;437583;1251;109090;-39
2023/01/30 06:51:51;;;;;;;;;;;;;;;-2.11;84.02;97854.01;437627;1251;97772;-40
2023/01/30 07:01:56;;;;;;;;;;;;;;;-2.12;83.80;97819.20;437737;1250;97494;-39
2023/01/30 07:12:02;;;;;;;;;;;;;;;-1.99;83.59;97816.82;437668;1250;110819;-40
2023/01/30 07:22:08;;;;;;;;;;;;;;;-1.80;83.60;97802.31;437491;1259;107933;-40
2023/01/30 07:32:14;;;;;;;;;;;;;;;-1.66;83.62;97789.80;437495;1250;97864;-41
2023/01/30 07:42:19;;;;;;;;;;;;;;;-1.57;83.45;97786.05;437529;1257;110576;-41
2023/01/30 07:52:25;;;;;;;;;;;;;;;-1.42;83.09;97770.87;437499;1252;108292;-39
2023/01/30 08:02:31;;;;;;;;;;;;;;;-1.24;82.80;97748.02;437524;1250;107139;-40
2023/01/30 08:12:38;;;;;;;;;;;;;;;-1.11;82.89;97744.14;437491;1250;97858;-40
2023/01/30 08:22:43;;;;;;;;;;;;;;;-1.05;82.56;97738.08;437608;1251;107588;-40
2023/01/30 08:32:49;;;;;;;;;;;;;;;-1.02;82.61;97726.81;438456;1250;97858;-41
2023/01/30 08:42:55;;;;;;;;;;;;;;;-0.97;82.40;97714.40;437532;1250;97866;-41
2023/01/30 08:53:02;;;;;;;;;;;;;;;-0.75;82.26;97702.84;437551;1251;109669;-40
2023/01/30 09:03:09;;;;;;;;;;;;;;;-0.56;82.40;97696.88;437381;1250;108226;-40
2023/01/30 09:13:16;;;;;;;;;;;;;;;-0.65;82.49;97679.36;437530;1251;97854;-39
2023/01/30 09:23:21;;;;;;;;;;;;;;;-0.67;82.89;97668.81;437755;1250;111803;-40
2023/01/30 09:33:27;;;;;;;;;;;;;;;-0.66;83.09;97657.11;437547;1251;107370;-40
2023/01/30 09:43:34;;;;;;;;;;;;;;;-0.64;83.36;97648.59;437551;1259;97867;-40
2023/01/30 09:53:40;;;;;;;;;;;;;;;-0.71;83.82;97635.63;437088;1248;644348;-40
2023/01/30 10:03:47;;;;;;;;;;;;;;;-0.84;84.07;97628.53;438710;1250;108015;-39
2023/01/30 10:13:58;;;;;;;;;;;;;;;-1.02;84.38;97621.24;437531;1257;97866;-40
2023/01/30 10:24:08;;;;;;;;;;;;;;;-1.02;84.57;97601.50;437703;1251;97889;-40
2023/01/30 10:34:17;;;;;;;;;;;;;;;-0.91;84.76;97588.48;438691;1251;106557;-42
2023/01/30 10:44:21;;;;;;;;;;;;;;;-0.74;84.85;97568.70;437661;1253;97955;-40
2023/01/30 10:54:31;;;;;;;;;;;;;;;-0.82;85.14;97554.23;437691;1251;110774;-41
2023/01/30 11:04:36;;;;;;;;;;;;;;;-0.84;85.47;97533.95;437766;1250;108766;-40
2023/01/30 11:14:53;;;;;;;;;;;;;;;-0.64;85.65;97525.59;437641;1250;97457;-39
2023/01/30 11:25:01;;;;;;;;;;;;;;;-0.52;85.78;97510.40;437794;1250;109861;-41
2023/01/30 11:35:11;;;;;;;;;;;;;;;-0.43;85.92;97486.77;438547;1251;108167;-41
2023/01/30 11:45:19;;;;;;;;;;;;;;;-0.42;86.24;97473.39;437837;1250;97867;-39
2023/01/30 11:55:24;;;;;;;;;;;;;;;-0.46;86.35;97466.77;437637;1250;109958;-40
2023/01/30 12:05:30;;;;;;;;;;;;;;;-0.44;86.35;97438.45;437604;1251;108436;-40
2023/01/30 12:15:38;;;;;;;;;;;;;;;-0.26;86.72;97431.45;437866;1251;97857;-40
2023/01/30 12:25:42;;;;;;;;;;;;;;;0.04;86.88;97426.39;437998;1251;110764;-39
2023/01/30 12:35:48;;;;;;;;;;;;;;;0.07;87.01;97416.33;437638;1254;108664;-40
2023/01/30 12:45:54;;;;;;;;;;;;;;;0.21;87.48;97409.36;437712;1250;97897;-40
2023/01/30 12:56:17;;;;;;;;;;;;;;;0.20;87.91;97399.63;437710;1251;108460;-40
2023/01/30 13:06:24;;;;;;;;;;;;;;;0.35;88.07;97398.66;437595;1250;97450;-41
2023/01/30 13:16:28;;;;;;;;;;;;;;;0.45;88.11;97403.28;437649;1250;111229;-40
2023/01/30 13:26:38;;;;;;;;;;;;;;;0.46;88.27;97395.89;437593;1250;107065;-39
2023/01/30 13:46:54;;;;;;;;;;;;;;;0.74;88.69;97382.57;438689;1250;107841;-39
2023/01/30 13:56:59;;;;;;;;;;;;;;;0.68;88.78;97368.48;440248;1251;97517;-41
2023/01/30 14:07:08;;;;;;;;;;;;;;;0.58;88.83;97360.75;441548;1250;97868;-40
2023/01/30 14:17:15;;;;;;;;;;;;;;;0.56;88.91;97363.11;441417;1250;107908;-40
2023/01/30 14:27:23;;;;;;;;;;;;;;;0.61;88.99;97357.11;441662;1245;97512;-40
2023/01/30 14:37:46;;;;;;;;;;;;;;;0.73;89.18;97364.66;442323;1251;110848;-40
2023/01/30 14:48:12;;;;;;;;;;;;;;;0.72;89.20;97370.95;441213;1247;107516;-40
2023/01/30 14:58:18;;;;;;;;;;;;;;;0.71;89.42;97381.59;439408;1250;96630;-40
2023/01/30 15:08:25;;;;;;;;;;;;;;;0.70;89.69;97399.23;441871;1250;108146;-40
2023/01/30 15:18:35;;;;;;;;;;;;;;;0.72;89.78;97419.86;441184;1250;97858;-41
2023/01/30 15:28:40;;;;;;;;;;;;;;;0.73;90.11;97423.99;439591;1249;110331;-40
2023/01/30 15:38:46;;;;;;;;;;;;;;;0.74;90.47;97428.23;441954;1249;108869;-39
2023/01/30 15:49:06;;;;;;;;;;;;;;;0.76;90.93;97432.45;440873;1249;96948;-39
2023/01/30 15:59:12;;;;;;;;;;;;;;;0.81;91.31;97437.58;437831;1250;110600;-40
2023/01/30 16:09:18;;;;;;;;;;;;;;;0.85;91.58;97438.18;437142;1250;108118;-39
2023/01/30 16:19:25;;;;;;;;;;;;;;;0.89;91.31;97444.27;437342;1250;97864;-40
2023/01/30 16:29:33;;;;;;;;;;;;;;;0.89;91.06;97451.23;437401;1250;109214;-39
2023/01/30 16:39:39;;;;;;;;;;;;;;;0.81;91.05;97460.83;437334;1250;97734;-40
2023/01/30 16:49:43;;;;;;;;;;;;;;;0.59;90.95;97468.15;437243;1250;97871;-39
2023/01/30 16:59:49;;;;;;;;;;;;;;;0.39;90.86;97469.63;437369;1250;97549;-40
2023/01/30 17:09:54;;;;;;;;;;;;;;;0.40;91.04;97478.52;440434;1250;108220;-39
2023/01/30 17:20:01;;;;;;;;;;;;;;;0.56;91.26;97471.40;439922;1250;97460;-39
2023/01/30 17:30:08;;;;;;;;;;;;;;;0.67;91.32;97464.42;440032;1251;109900;-40
2023/01/30 17:40:14;;;;;;;;;;;;;;;0.68;91.43;97456.02;441144;1250;107456;-40
2023/01/30 17:50:19;;;;;;;;;;;;;;;0.73;91.37;97463.45;440498;1250;108649;-39
2023/01/30 18:00:26;;;;;;;;;;;;;;;0.78;91.45;97467.67;440054;1250;97986;-40
2023/01/30 18:10:31;;;;;;;;;;;;;;;0.81;91.51;97458.23;436491;1251;109501;-39
2023/01/30 18:20:37;;;;;;;;;;;;;;;0.72;91.72;97457.13;436387;1248;108697;-40
2023/01/30 18:30:42;;;;;;;;;;;;;;;0.66;91.60;97450.33;436429;1253;97852;-40
2023/01/30 18:40:48;;;;;;;;;;;;;;;0.63;91.72;97439.64;436413;1253;109515;-39
2023/01/30 18:50:54;;;;;;;;;;;;;;;0.58;91.74;97440.52;437946;1252;108095;-38
2023/01/30 19:01:00;;;;;;;;;;;;;;;0.62;91.74;97442.04;440088;1253;96974;-41
2023/01/30 19:13:31;;;;;;;;;;;;;;;0.73;91.67;97454.09;440425;1250;109506;-40
2023/01/30 19:21:33;;;;;;;;;;;;;;;0.74;91.78;97454.77;440932;1250;109520;-39
2023/01/30 19:31:39;;;;;;;;;;;;;;;0.72;91.87;97462.52;440598;1250;108067;-39
2023/01/30 19:41:45;;;;;;;;;;;;;;;0.76;91.80;97469.95;439670;1250;96612;-41
2023/01/30 19:51:50;;;;;;;;;;;;;;;0.76;92.04;97472.03;440257;1250;108320;-40
2023/01/30 20:01:55;;;;;;;;;;;;;;;0.77;92.37;97490.29;441010;1250;109383;-39
2023/01/30 20:12:01;;;;;;;;;;;;;;;0.76;92.24;97494.13;439512;1250;97457;-40
2023/01/30 20:22:07;;;;;;;;;;;;;;;0.78;92.95;97497.58;440342;1250;110672;-39
2023/01/30 20:32:12;;;;;;;;;;;;;;;0.90;93.11;97494.13;441212;1250;109767;-40
2023/01/30 20:42:18;;;;;;;;;;;;;;;1.01;93.20;97508.38;440344;1250;96556;-39
2023/01/30 20:52:24;;;;;;;;;;;;;;;1.10;93.20;97517.72;441378;1251;110434;-41
2023/01/30 21:02:30;;;;;;;;;;;;;;;1.17;93.44;97529.40;441282;1250;107535;-40
2023/01/30 21:12:36;;;;;;;;;;;;;;;1.24;93.81;97543.69;440358;1251;100050;-40
2023/01/30 21:22:41;;;;;;;;;;;;;;;1.27;93.65;97551.91;440232;1250;108215;-39
2023/01/30 21:32:47;;;;;;;;;;;;;;;1.30;93.46;97566.61;440295;1250;97480;-40
2023/01/30 21:53:16;;;;;;;;;;;;;;;1.23;93.71;97606.61;440393;1250;155147;-39
2023/01/30 22:03:25;;;;;;;;;;;;;;;1.18;93.75;97617.42;440893;1250;106993;-39
2023/01/30 22:13:31;;;;;;;;;;;;;;;1.18;93.67;97634.48;440984;1248;97355;-40
2023/01/30 22:23:38;;;;;;;;;;;;;;;1.23;93.79;97657.66;440942;1250;109345;-39
2023/01/30 22:33:44;;;;;;;;;;;;;;;1.18;93.49;97661.67;440913;1250;96704;-39
2023/01/30 22:43:50;;;;;;;;;;;;;;;1.16;93.50;97669.42;441215;1250;109927;-40
2023/01/30 22:53:57;;;;;;;;;;;;;;;1.17;93.76;97684.73;440427;1250;107960;-39
2023/01/30 23:04:04;;;;;;;;;;;;;;;1.17;94.18;97686.42;437458;1250;97877;-38
2023/01/30 23:14:10;;;;;;;;;;;;;;;1.23;94.28;97681.90;437448;1250;109086;-39
2023/01/30 23:24:18;;;;;;;;;;;;;;;1.24;94.22;97692.56;437344;1250;108764;-39
2023/01/30 23:44:29;;;;;;;;;;;;;;;1.24;94.26;97706.30;437525;1250;108618;-40
2023/01/30 23:54:35;;;;;;;;;;;;;;;1.24;94.05;97709.98;437590;1250;97881;-38
